createdAt,value
2018-10-19T00:01:32.950Z,2.80
2018-10-19T00:04:38.345Z,2.60
2018-10-19T00:07:43.695Z,2.60
2018-10-19T00:10:49.148Z,3.00
2018-10-19T00:13:54.837Z,3.10
2018-10-19T00:17:00.227Z,3.00
2018-10-19T00:20:07.098Z,2.70
2018-10-19T00:23:12.515Z,2.70
2018-10-19T00:26:18.417Z,3.10
2018-10-19T00:29:23.766Z,2.70
2018-10-19T00:32:29.114Z,2.87
2018-10-19T00:35:34.521Z,3.50
2018-10-19T00:38:39.983Z,3.17
2018-10-19T00:41:45.317Z,2.90
2018-10-19T00:44:50.658Z,3.20
2018-10-19T00:47:56.351Z,3.30
2018-10-19T00:51:01.748Z,3.00
2018-10-19T00:54:07.681Z,2.97
2018-10-19T00:57:13.090Z,2.70
2018-10-19T01:00:18.685Z,2.80
2018-10-19T01:03:24.100Z,3.03
2018-10-19T01:06:29.554Z,2.80
2018-10-19T01:09:34.903Z,3.00
2018-10-19T01:12:40.779Z,2.50
2018-10-19T01:15:46.130Z,2.90
2018-10-19T01:18:51.654Z,3.37
2018-10-19T01:21:57.149Z,2.80
2018-10-19T01:25:02.475Z,3.00
2018-10-19T01:28:08.005Z,2.90
2018-10-19T01:31:13.393Z,3.07
2018-10-19T01:34:18.783Z,2.70
2018-10-19T01:37:24.121Z,3.23
2018-10-19T01:40:29.517Z,3.27
2018-10-19T01:43:34.921Z,2.90
2018-10-19T01:46:44.345Z,3.53
2018-10-19T01:49:49.790Z,2.77
2018-10-19T01:52:55.203Z,2.60
2018-10-19T01:56:00.771Z,3.70
2018-10-19T01:59:06.720Z,3.23
2018-10-19T02:02:12.266Z,3.40
2018-10-19T02:05:18.530Z,3.50
2018-10-19T02:08:23.911Z,2.90
2018-10-19T02:11:29.269Z,3.40
2018-10-19T02:14:34.666Z,3.17
2018-10-19T02:17:40.014Z,2.93
2018-10-19T02:20:45.562Z,2.97
2018-10-19T02:23:51.294Z,3.50
2018-10-19T02:26:57.041Z,3.43
2018-10-19T02:30:02.679Z,3.07
2018-10-19T02:33:08.455Z,3.13
2018-10-19T02:36:14.126Z,3.17
2018-10-19T02:39:19.673Z,2.97
2018-10-19T02:42:25.197Z,3.10
2018-10-19T02:45:34.202Z,3.00
2018-10-19T02:48:39.632Z,2.83
2018-10-19T02:51:44.978Z,4.00
2018-10-19T02:54:50.486Z,4.20
2018-10-19T02:57:55.815Z,3.63
2018-10-19T03:01:01.565Z,3.53
2018-10-19T03:04:06.934Z,3.73
2018-10-19T03:07:12.298Z,3.27
2018-10-19T03:10:18.346Z,3.30
2018-10-19T03:13:23.831Z,3.30
2018-10-19T03:16:29.182Z,3.90
2018-10-19T03:19:34.726Z,3.77
2018-10-19T03:22:40.072Z,3.50
2018-10-19T03:25:45.409Z,3.37
2018-10-19T03:28:50.847Z,3.70
2018-10-19T03:31:56.201Z,3.60
2018-10-19T03:35:01.590Z,3.40
2018-10-19T03:38:07.497Z,3.30
2018-10-19T03:41:12.954Z,3.57
2018-10-19T03:44:18.498Z,3.43
2018-10-19T03:47:23.881Z,3.37
2018-10-19T03:50:29.762Z,3.77
2018-10-19T03:53:35.655Z,3.70
2018-10-19T03:56:41.047Z,3.53
2018-10-19T03:59:46.410Z,4.00
2018-10-19T04:02:51.817Z,4.23
2018-10-19T04:05:57.373Z,3.50
2018-10-19T04:09:03.328Z,3.23
2018-10-19T04:12:08.917Z,4.33
2018-10-19T04:15:14.364Z,4.30
2018-10-19T04:18:19.925Z,3.53
2018-10-19T04:21:25.386Z,4.07
2018-10-19T04:24:30.762Z,3.60
2018-10-19T04:27:36.845Z,4.03
2018-10-19T04:30:42.457Z,3.97
2018-10-19T04:33:47.835Z,4.07
2018-10-19T04:37:04.973Z,4.33
2018-10-19T04:40:21.711Z,4.07
2018-10-19T04:43:27.129Z,4.20
2018-10-19T04:46:32.467Z,4.13
2018-10-19T04:49:37.923Z,3.67
2018-10-19T04:52:43.330Z,4.30
2018-10-19T04:55:48.790Z,4.63
2018-10-19T04:58:54.281Z,4.30
2018-10-19T05:02:00.707Z,3.47
2018-10-19T05:05:07.322Z,4.67
2018-10-19T05:08:12.847Z,4.27
2018-10-19T05:11:18.563Z,4.43
2018-10-19T05:14:23.992Z,4.23
2018-10-19T05:17:30.042Z,4.03
2018-10-19T05:20:35.507Z,4.73
2018-10-19T05:23:40.958Z,4.73
2018-10-19T05:26:46.371Z,4.43
2018-10-19T05:29:52.861Z,4.17
2018-10-19T05:32:58.219Z,4.80
2018-10-19T05:36:04.390Z,4.70
2018-10-19T05:39:10.405Z,4.47
2018-10-19T05:42:15.807Z,4.70
2018-10-19T05:45:21.206Z,4.43
2018-10-19T05:48:26.561Z,4.90
2018-10-19T05:51:31.939Z,5.20
2018-10-19T05:54:37.372Z,5.80
2018-10-19T05:57:42.837Z,5.90
2018-10-19T06:00:48.326Z,4.77
2018-10-19T06:03:53.782Z,5.73
2018-10-19T06:06:59.185Z,4.30
2018-10-19T06:10:05.090Z,5.13
2018-10-19T06:13:10.498Z,4.93
2018-10-19T06:16:15.874Z,5.60
2018-10-19T06:19:21.378Z,5.60
2018-10-19T06:22:26.819Z,6.17
2018-10-19T06:25:32.185Z,6.57
2018-10-19T06:28:37.669Z,5.83
2018-10-19T06:31:43.052Z,5.93
2018-10-19T06:34:48.414Z,5.77
2018-10-19T06:37:53.929Z,6.50
2018-10-19T06:40:59.559Z,5.10
2018-10-19T06:44:05.618Z,6.10
2018-10-19T06:47:22.692Z,6.57
2018-10-19T06:50:28.274Z,5.47
2018-10-19T06:53:34.125Z,5.80
2018-10-19T06:56:39.494Z,5.13
2018-10-19T06:59:44.933Z,5.60
2018-10-19T07:02:50.310Z,4.83
2018-10-19T07:05:55.693Z,5.90
2018-10-19T07:09:01.210Z,5.80
2018-10-19T07:12:07.783Z,6.30
2018-10-19T07:15:13.323Z,5.67
2018-10-19T07:18:18.798Z,5.47
2018-10-19T07:21:24.263Z,5.57
2018-10-19T07:24:29.930Z,5.70
2018-10-19T07:27:35.480Z,5.63
2018-10-19T07:30:40.890Z,4.90
2018-10-19T07:33:46.973Z,5.63
2018-10-19T07:36:52.337Z,5.67
2018-10-19T07:39:57.714Z,5.63
2018-10-19T07:43:03.099Z,5.40
2018-10-19T07:46:08.445Z,5.63
2018-10-19T07:49:14.155Z,6.37
2018-10-19T07:52:19.514Z,5.17
2018-10-19T07:55:24.941Z,5.20
2018-10-19T07:58:30.389Z,10.40
2018-10-19T08:01:35.749Z,6.03
2018-10-19T08:04:41.142Z,5.87
2018-10-19T08:07:46.970Z,4.90
2018-10-19T08:10:52.805Z,4.67
2018-10-19T08:13:58.881Z,5.53
2018-10-19T08:17:04.362Z,4.90
2018-10-19T08:20:10.734Z,4.63
2018-10-19T08:23:16.397Z,5.13
2018-10-19T08:26:24.165Z,5.77
2018-10-19T08:29:29.574Z,5.20
2018-10-19T08:32:34.911Z,5.40
2018-10-19T08:35:40.282Z,4.80
2018-10-19T08:38:45.651Z,4.50
2018-10-19T08:41:51.060Z,3.90
2018-10-19T08:44:56.638Z,4.93
2018-10-19T08:48:02.199Z,4.60
2018-10-19T08:51:07.593Z,4.70
2018-10-19T08:54:14.166Z,4.87
2018-10-19T08:57:19.609Z,4.33
2018-10-19T09:00:25.118Z,5.53
2018-10-19T09:03:30.520Z,4.83
2018-10-19T09:06:36.259Z,4.50
2018-10-19T09:09:42.343Z,5.13
2018-10-19T09:12:47.904Z,5.13
2018-10-19T09:15:54.906Z,4.17
2018-10-19T09:19:00.390Z,4.13
2018-10-19T09:22:06.486Z,4.10
2018-10-19T09:25:11.899Z,4.67
2018-10-19T09:28:17.269Z,4.83
2018-10-19T09:31:22.648Z,4.83
2018-10-19T09:34:27.999Z,4.97
2018-10-19T09:37:33.362Z,4.43
2018-10-19T09:40:38.748Z,4.63
2018-10-19T09:43:44.131Z,4.87
2018-10-19T09:46:49.562Z,4.87
2018-10-19T09:49:54.898Z,3.90
2018-10-19T09:53:00.284Z,3.80
2018-10-19T09:56:06.320Z,3.50
2018-10-19T09:59:12.023Z,3.50
2018-10-19T10:02:17.502Z,3.07
2018-10-19T10:05:22.918Z,3.17
2018-10-19T10:08:28.342Z,2.90
2018-10-19T10:11:35.834Z,2.40
2018-10-19T10:14:41.279Z,2.63
2018-10-19T10:17:46.822Z,2.07
2018-10-19T10:20:52.193Z,2.23
2018-10-19T10:23:57.839Z,2.27
2018-10-19T10:27:04.029Z,2.23
2018-10-19T10:30:10.922Z,2.03
2018-10-19T10:33:16.808Z,2.73
2018-10-19T10:36:22.778Z,2.50
2018-10-19T10:39:33.659Z,2.43
2018-10-19T10:42:40.732Z,2.20
2018-10-19T10:45:46.274Z,2.43
2018-10-19T10:48:51.878Z,2.10
2018-10-19T10:51:57.256Z,2.47
2018-10-19T10:55:03.637Z,2.10
2018-10-19T10:58:09.247Z,2.70
2018-10-19T11:01:16.152Z,2.43
2018-10-19T11:04:21.702Z,2.77
2018-10-19T11:07:27.852Z,2.77
2018-10-19T11:10:33.461Z,2.50
2018-10-19T11:13:40.190Z,2.60
2018-10-19T11:16:45.565Z,2.67
2018-10-19T11:19:50.933Z,2.20
2018-10-19T11:22:56.530Z,2.17
2018-10-19T11:26:01.902Z,2.20
2018-10-19T11:29:07.582Z,2.10
2018-10-19T11:32:12.949Z,2.67
2018-10-19T11:35:19.031Z,2.60
2018-10-19T11:38:24.602Z,2.30
2018-10-19T11:41:30.030Z,2.50
2018-10-19T11:44:35.390Z,2.33
2018-10-19T11:47:40.769Z,2.00
2018-10-19T11:50:46.177Z,2.57
2018-10-19T11:53:51.572Z,4.20
2018-10-19T11:56:57.005Z,2.80
2018-10-19T12:00:02.552Z,2.10
2018-10-19T12:03:08.022Z,2.27
2018-10-19T12:06:13.519Z,2.40
2018-10-19T12:09:18.889Z,2.50
2018-10-19T12:12:24.314Z,3.10
2018-10-19T12:15:29.683Z,2.07
2018-10-19T12:18:35.117Z,2.43
2018-10-19T12:21:40.557Z,3.27
2018-10-19T12:24:45.934Z,2.40
2018-10-19T12:27:51.353Z,2.37
2018-10-19T12:30:56.832Z,2.57
2018-10-19T12:34:02.454Z,2.53
2018-10-19T12:37:11.029Z,2.90
2018-10-19T12:40:16.606Z,2.80
2018-10-19T12:43:22.244Z,2.63
2018-10-19T12:46:45.869Z,2.80
2018-10-19T12:49:51.308Z,2.90
2018-10-19T12:52:56.690Z,2.47
2018-10-19T12:56:02.201Z,2.23
2018-10-19T12:59:08.273Z,2.03
2018-10-19T13:02:14.745Z,2.30
2018-10-19T13:05:20.130Z,2.23
2018-10-19T13:08:25.633Z,2.10
2018-10-19T13:11:31.038Z,2.37
2018-10-19T13:14:36.929Z,1.93
2018-10-19T13:17:42.330Z,2.10
2018-10-19T13:20:47.728Z,2.10
2018-10-19T13:23:53.156Z,2.23
2018-10-19T13:27:11.220Z,1.77
2018-10-19T13:30:16.963Z,2.27
2018-10-19T13:33:22.389Z,2.00
2018-10-19T13:36:27.780Z,2.03
2018-10-19T13:39:33.161Z,1.70
2018-10-19T13:42:38.514Z,1.50
2018-10-19T13:45:43.860Z,1.50
2018-10-19T13:48:49.409Z,2.00
2018-10-19T13:51:54.822Z,1.37
2018-10-19T13:55:00.833Z,1.67
2018-10-19T13:58:06.458Z,2.07
2018-10-19T14:01:16.073Z,1.80
2018-10-19T14:04:21.485Z,1.77
2018-10-19T14:07:26.849Z,1.60
2018-10-19T14:10:32.345Z,1.60
2018-10-19T14:13:37.754Z,1.40
2018-10-19T14:16:43.146Z,1.40
2018-10-19T14:19:49.154Z,1.63
2018-10-19T14:22:54.567Z,1.83
2018-10-19T14:25:59.956Z,1.20
2018-10-19T14:29:05.781Z,1.60
2018-10-19T14:32:11.361Z,1.90
2018-10-19T14:35:16.829Z,1.33
2018-10-19T14:38:22.345Z,1.60
2018-10-19T14:41:27.728Z,1.47
2018-10-19T14:44:34.559Z,1.70
2018-10-19T14:47:41.274Z,1.87
2018-10-19T14:50:47.461Z,1.60
2018-10-19T14:53:52.887Z,1.80
2018-10-19T14:56:58.318Z,1.60
2018-10-19T15:00:04.558Z,1.83
2018-10-19T15:03:09.977Z,2.20
2018-10-19T15:06:15.531Z,1.57
2018-10-19T15:09:21.035Z,2.00
2018-10-19T15:12:26.551Z,2.20
2018-10-19T15:15:32.478Z,2.10
2018-10-19T15:18:37.932Z,1.77
2018-10-19T15:21:43.457Z,1.57
2018-10-19T15:24:48.858Z,1.60
2018-10-19T15:27:54.745Z,1.77
2018-10-19T15:31:00.193Z,2.17
2018-10-19T15:34:06.102Z,1.43
2018-10-19T15:37:11.501Z,1.80
2018-10-19T15:40:16.921Z,1.93
2018-10-19T15:43:22.282Z,2.00
2018-10-19T15:46:27.689Z,1.60
2018-10-19T15:49:33.449Z,1.80
2018-10-19T15:52:38.825Z,1.87
2018-10-19T15:55:44.218Z,2.10
2018-10-19T15:58:49.771Z,1.47
2018-10-19T16:01:55.970Z,1.93
2018-10-19T16:05:01.357Z,2.43
2018-10-19T16:08:07.925Z,2.27
2018-10-19T16:11:13.490Z,1.83
2018-10-19T16:14:19.018Z,2.17
2018-10-19T16:17:24.452Z,1.70
2018-10-19T16:20:30.080Z,1.63
2018-10-19T16:23:35.820Z,1.90
2018-10-19T16:26:41.210Z,2.27
2018-10-19T16:29:46.593Z,1.87
2018-10-19T16:32:51.977Z,2.20
2018-10-19T16:35:57.834Z,2.00
2018-10-19T16:39:03.321Z,1.87
2018-10-19T16:42:09.612Z,1.70
2018-10-19T16:45:15.335Z,1.70
2018-10-19T16:48:20.882Z,1.83
2018-10-19T16:51:31.418Z,1.97
2018-10-19T16:54:36.802Z,1.83
2018-10-19T16:57:42.313Z,2.47
2018-10-19T17:00:47.733Z,1.77
2018-10-19T17:03:53.320Z,2.13
2018-10-19T17:06:59.081Z,2.13
2018-10-19T17:10:04.774Z,2.10
2018-10-19T17:13:10.158Z,2.67
2018-10-19T17:16:15.573Z,2.27
2018-10-19T17:19:21.004Z,2.40
2018-10-19T17:22:26.558Z,2.83
2018-10-19T17:25:32.042Z,2.20
2018-10-19T17:28:37.566Z,2.33
2018-10-19T17:31:43.011Z,2.67
2018-10-19T17:34:48.375Z,2.53
2018-10-19T17:37:53.777Z,2.63
2018-10-19T17:40:59.185Z,2.87
2018-10-19T17:44:04.558Z,3.17
2018-10-19T17:47:10.789Z,3.00
2018-10-19T17:50:16.421Z,2.73
2018-10-19T17:53:21.837Z,2.90
2018-10-19T17:56:27.266Z,6.87
2018-10-19T17:59:32.658Z,3.20
2018-10-19T18:02:38.064Z,2.90
2018-10-19T18:05:55.137Z,2.73
2018-10-19T18:09:00.829Z,2.90
2018-10-19T18:12:06.695Z,3.20
2018-10-19T18:15:12.262Z,2.90
2018-10-19T18:18:17.690Z,2.93
2018-10-19T18:21:23.101Z,3.40
2018-10-19T18:24:28.686Z,3.07
2018-10-19T18:27:34.226Z,3.30
2018-10-19T18:30:39.705Z,3.07
2018-10-19T18:33:45.591Z,3.37
2018-10-19T18:36:51.111Z,3.40
2018-10-19T18:39:56.562Z,3.57
2018-10-19T18:43:01.949Z,3.60
2018-10-19T18:46:07.655Z,3.87
2018-10-19T18:49:13.212Z,3.53
2018-10-19T18:52:18.674Z,3.40
2018-10-19T18:55:24.058Z,3.63
2018-10-19T18:58:29.574Z,3.73
2018-10-19T19:01:34.986Z,3.63
2018-10-19T19:04:40.661Z,3.70
2018-10-19T19:07:46.073Z,4.13
2018-10-19T19:10:51.462Z,3.67
2018-10-19T19:13:56.969Z,3.70
2018-10-19T19:17:02.557Z,3.87
2018-10-19T19:20:16.537Z,3.73
2018-10-19T19:23:22.142Z,4.10
2018-10-19T19:26:28.545Z,4.17
2018-10-19T19:29:34.002Z,4.47
2018-10-19T19:32:43.474Z,4.60
2018-10-19T19:35:48.837Z,4.90
2018-10-19T19:38:54.301Z,4.33
2018-10-19T19:42:05.059Z,4.23
2018-10-19T19:45:10.721Z,4.10
2018-10-19T19:48:21.214Z,5.23
2018-10-19T19:51:26.602Z,5.00
2018-10-19T19:54:31.966Z,4.13
2018-10-19T19:57:37.309Z,4.80
2018-10-19T20:00:43.129Z,5.10
2018-10-19T20:03:48.489Z,5.63
2018-10-19T20:06:53.814Z,4.43
2018-10-19T20:09:59.233Z,4.53
2018-10-19T20:13:04.782Z,4.40
2018-10-19T20:16:10.108Z,4.87
2018-10-19T20:19:15.599Z,4.50
2018-10-19T20:22:21.646Z,4.53
2018-10-19T20:25:27.037Z,4.67
2018-10-19T20:28:32.434Z,4.77
2018-10-19T20:31:37.770Z,5.00
2018-10-19T20:34:43.134Z,4.90
2018-10-19T20:37:48.492Z,5.60
2018-10-19T20:40:54.015Z,5.10
2018-10-19T20:43:59.672Z,4.93
2018-10-19T20:47:05.563Z,4.87
2018-10-19T20:50:11.323Z,5.00
2018-10-19T20:53:16.907Z,5.20
2018-10-19T20:56:22.470Z,4.70
2018-10-19T20:59:27.873Z,5.40
2018-10-19T21:02:33.267Z,4.90
2018-10-19T21:05:38.842Z,5.33
2018-10-19T21:08:44.329Z,5.53
2018-10-19T21:11:49.673Z,5.63
2018-10-19T21:14:55.650Z,5.07
2018-10-19T21:18:01.017Z,6.00
2018-10-19T21:21:06.934Z,5.80
2018-10-19T21:24:13.181Z,6.17
2018-10-19T21:27:18.593Z,6.03
2018-10-19T21:30:24.018Z,7.00
2018-10-19T21:33:29.414Z,6.83
2018-10-19T21:36:34.787Z,7.40
2018-10-19T21:39:40.266Z,6.47
2018-10-19T21:42:45.633Z,6.80
2018-10-19T21:45:51.346Z,6.37
2018-10-19T21:48:56.797Z,6.87
2018-10-19T21:52:02.266Z,6.47
2018-10-19T21:55:09.686Z,6.73
2018-10-19T21:58:15.075Z,6.47
2018-10-19T22:01:20.483Z,7.03
2018-10-19T22:04:25.980Z,6.93
2018-10-19T22:07:31.475Z,6.67
2018-10-19T22:10:37.106Z,6.50
2018-10-19T22:13:42.937Z,6.37
2018-10-19T22:16:48.349Z,6.43
2018-10-19T22:19:53.860Z,7.13
2018-10-19T22:22:59.293Z,5.73
2018-10-19T22:26:04.899Z,6.37
2018-10-19T22:29:10.588Z,6.53
2018-10-19T22:32:16.094Z,5.93
2018-10-19T22:35:21.495Z,6.40
2018-10-19T22:38:26.893Z,6.23
2018-10-19T22:41:32.254Z,6.30
2018-10-19T22:44:37.593Z,6.30
2018-10-19T22:47:43.033Z,6.23
2018-10-19T22:50:48.422Z,5.73
2018-10-19T22:53:53.766Z,6.30
2018-10-19T22:56:59.141Z,6.53
2018-10-19T23:00:04.594Z,7.27
2018-10-19T23:03:09.931Z,6.30
2018-10-19T23:06:15.275Z,6.47
2018-10-19T23:09:20.658Z,6.93
2018-10-19T23:12:26.024Z,6.60
2018-10-19T23:15:31.383Z,6.33
2018-10-19T23:18:36.802Z,6.63
2018-10-19T23:21:42.267Z,6.27
2018-10-19T23:24:47.741Z,6.43
2018-10-19T23:27:53.085Z,5.70
2018-10-19T23:30:58.812Z,6.33
2018-10-19T23:34:04.402Z,5.50
2018-10-19T23:37:09.865Z,5.80
2018-10-19T23:40:15.461Z,6.27
2018-10-19T23:43:20.876Z,6.27
2018-10-19T23:46:26.258Z,7.27
2018-10-19T23:49:31.722Z,7.10
2018-10-19T23:52:37.103Z,6.37
2018-10-19T23:55:42.542Z,6.83
2018-10-19T23:58:48.150Z,6.53
